Time;durP1;ratioP1;P1;durP2;ratioP2;P2;SDS_P1;SDS_P2;PMS_P1;PMS_P2;Temp;Humidity;BMP_temperature;BMP_pressure;BME280_temperature;BME280_humidity;BME280_pressure;Samples;Min_cycle;Max_cycle;Signal;HPM_P1;HPM_P2
2023/08/10 05:49:07;;;;;;;3.55;1.80;;;;;;;;;;10508194;28;20477;-86
2023/08/10 05:54:08;;;;;;;3.33;1.73;;;;;;;;;;10506810;28;20044;-86
2023/08/10 07:06:17;;;;;;;2.70;1.45;;;;;;;;;;10442918;28;20037;-86
2023/08/10 07:11:21;;;;;;;2.63;1.30;;;;;;;;;;10475474;28;20151;-86
2023/08/10 07:16:23;;;;;;;2.47;1.40;;;;;;;;;;10495628;28;20056;-84
2023/08/10 07:21:26;;;;;;;3.47;1.80;;;;;;;;;;10506784;28;20037;-85
2023/08/10 07:26:48;;;;;;;2.85;1.38;;;;;;;;;;10496181;28;20078;-85
2023/08/10 07:31:51;;;;;;;4.13;2.05;;;;;;;;;;10501011;28;20016;-85
2023/08/10 07:36:57;;;;;;;2.78;1.40;;;;;;;;;;10498568;28;20045;-85
2023/08/10 07:42:04;;;;;;;4.55;1.70;;;;;;;;;;10493711;28;20375;-85
2023/08/10 07:47:08;;;;;;;7.15;1.75;;;;;;;;;;10495880;28;20036;-86
2023/08/10 07:52:11;;;;;;;4.93;1.98;;;;;;;;;;10509017;28;20102;-86
2023/08/10 07:57:12;;;;;;;3.03;1.58;;;;;;;;;;10492027;28;20037;-85
2023/08/10 08:02:13;;;;;;;4.72;1.52;;;;;;;;;;10494049;28;20516;-85
2023/08/10 08:07:14;;;;;;;3.88;1.67;;;;;;;;;;10493752;28;20149;-85
2023/08/10 08:12:15;;;;;;;4.68;1.45;;;;;;;;;;10492064;28;20047;-86
2023/08/10 08:17:16;;;;;;;4.25;1.35;;;;;;;;;;10485953;28;20120;-85
2023/08/10 08:22:18;;;;;;;4.25;1.60;;;;;;;;;;10497264;28;20035;-85
2023/08/10 08:27:20;;;;;;;3.75;1.65;;;;;;;;;;10491942;28;20041;-85
2023/08/10 08:32:22;;;;;;;3.97;1.35;;;;;;;;;;10491835;28;20032;-84
2023/08/10 08:37:24;;;;;;;4.20;1.50;;;;;;;;;;10491192;28;20041;-85
2023/08/10 08:42:27;;;;;;;4.22;1.65;;;;;;;;;;10507500;28;20029;-86
2023/08/10 08:47:32;;;;;;;4.20;1.90;;;;;;;;;;10494593;28;20043;-84
2023/08/10 08:52:33;;;;;;;3.97;2.20;;;;;;;;;;10500801;28;20131;-85
2023/08/10 08:57:34;;;;;;;2.78;1.60;;;;;;;;;;10492232;28;20474;-84
2023/08/10 09:02:35;;;;;;;5.35;1.90;;;;;;;;;;10492909;28;20131;-86
2023/08/10 09:07:36;;;;;;;4.15;2.03;;;;;;;;;;10493122;28;20068;-85
2023/08/10 09:12:38;;;;;;;3.33;2.00;;;;;;;;;;10496331;28;20467;-85
2023/08/10 09:17:44;;;;;;;3.65;2.08;;;;;;;;;;10513494;28;20043;-85
2023/08/10 09:22:46;;;;;;;3.53;1.83;;;;;;;;;;10522139;28;20036;-85
2023/08/10 09:27:48;;;;;;;5.43;1.60;;;;;;;;;;10517409;28;20051;-85
2023/08/10 09:32:49;;;;;;;3.08;1.52;;;;;;;;;;10492269;28;20025;-85
2023/08/10 09:37:58;;;;;;;3.05;1.33;;;;;;;;;;10509758;28;20099;-84
2023/08/10 09:42:59;;;;;;;9.43;1.80;;;;;;;;;;10510098;28;20043;-84
2023/08/10 09:48:01;;;;;;;3.17;1.52;;;;;;;;;;10490868;28;20068;-84
2023/08/10 09:53:02;;;;;;;2.75;1.40;;;;;;;;;;10491256;28;20039;-85
2023/08/10 09:58:03;;;;;;;3.67;1.73;;;;;;;;;;10490273;28;20044;-84
2023/08/10 10:03:04;;;;;;;5.78;1.98;;;;;;;;;;10508098;28;20059;-84
2023/08/10 10:08:06;;;;;;;2.55;1.38;;;;;;;;;;10522222;28;20414;-85
2023/08/10 10:13:08;;;;;;;2.45;1.50;;;;;;;;;;10495211;28;20063;-85
2023/08/10 10:18:10;;;;;;;3.90;1.30;;;;;;;;;;10490626;28;20156;-86
2023/08/10 10:23:21;;;;;;;2.83;1.55;;;;;;;;;;10491463;28;20048;-85
2023/08/10 10:28:22;;;;;;;3.88;1.67;;;;;;;;;;10492687;28;20481;-85
2023/08/10 10:33:24;;;;;;;2.20;1.60;;;;;;;;;;10501458;28;20029;-84
2023/08/10 10:38:25;;;;;;;3.28;1.38;;;;;;;;;;10502816;28;20041;-84
2023/08/10 10:43:27;;;;;;;3.50;1.67;;;;;;;;;;10547364;28;20044;-84
2023/08/10 10:48:35;;;;;;;4.40;1.55;;;;;;;;;;10504986;28;20033;-82
2023/08/10 10:53:37;;;;;;;3.38;1.60;;;;;;;;;;10496697;28;20487;-85
2023/08/10 10:58:39;;;;;;;4.05;1.50;;;;;;;;;;10497496;28;20096;-85
2023/08/10 11:03:40;;;;;;;4.35;1.90;;;;;;;;;;10497778;28;20120;-85
2023/08/10 11:08:41;;;;;;;5.18;1.58;;;;;;;;;;10509408;28;20177;-84
2023/08/10 11:13:42;;;;;;;2.65;1.40;;;;;;;;;;10494402;28;20166;-83
2023/08/10 11:18:45;;;;;;;2.97;1.75;;;;;;;;;;10494818;28;20029;-82
2023/08/10 11:23:47;;;;;;;3.75;1.60;;;;;;;;;;10528114;28;20037;-82
2023/08/10 11:28:48;;;;;;;4.22;2.88;;;;;;;;;;10497583;28;20039;-81
2023/08/10 11:33:50;;;;;;;6.03;2.00;;;;;;;;;;10493426;28;20058;-85
2023/08/10 11:38:51;;;;;;;2.97;1.77;;;;;;;;;;10502535;28;20477;-85
2023/08/10 11:43:52;;;;;;;3.28;1.70;;;;;;;;;;10513486;28;20047;-86
2023/08/10 11:48:53;;;;;;;2.17;1.30;;;;;;;;;;10498808;28;20036;-87
2023/08/10 11:53:54;;;;;;;3.55;2.08;;;;;;;;;;10484623;28;20036;-86
2023/08/10 11:58:56;;;;;;;2.30;1.50;;;;;;;;;;10487244;28;20127;-86
2023/08/10 12:03:57;;;;;;;2.83;1.58;;;;;;;;;;10501970;28;20028;-86
2023/08/10 12:08:58;;;;;;;3.47;1.60;;;;;;;;;;10497500;28;20035;-86
2023/08/10 12:14:00;;;;;;;4.93;1.60;;;;;;;;;;10504266;28;20165;-85
2023/08/10 12:19:01;;;;;;;5.65;1.60;;;;;;;;;;10495992;28;20035;-84
2023/08/10 12:24:02;;;;;;;4.90;1.80;;;;;;;;;;10496161;28;20119;-84
2023/08/10 12:29:03;;;;;;;2.65;1.50;;;;;;;;;;10512286;28;20514;-83
2023/08/10 12:34:06;;;;;;;5.05;2.00;;;;;;;;;;10496538;28;20055;-85
2023/08/10 12:39:07;;;;;;;3.53;2.22;;;;;;;;;;10533942;28;20033;-85
2023/08/10 12:44:08;;;;;;;2.40;1.67;;;;;;;;;;10531092;28;20039;-83
2023/08/10 12:49:09;;;;;;;3.85;1.60;;;;;;;;;;10506702;28;20045;-86
2023/08/10 12:54:10;;;;;;;2.42;1.70;;;;;;;;;;10500812;28;20033;-83
2023/08/10 12:59:11;;;;;;;4.45;1.80;;;;;;;;;;10496499;28;20094;-83
2023/08/10 13:04:12;;;;;;;4.00;2.05;;;;;;;;;;10510648;28;20067;-83
2023/08/10 13:09:13;;;;;;;3.92;1.83;;;;;;;;;;10512938;28;20442;-83
2023/08/10 13:14:14;;;;;;;3.97;1.98;;;;;;;;;;10493261;28;20131;-82
2023/08/10 13:19:17;;;;;;;2.13;1.52;;;;;;;;;;10494426;28;20045;-84
2023/08/10 13:24:18;;;;;;;3.65;1.63;;;;;;;;;;10494413;28;20044;-84
2023/08/10 13:29:19;;;;;;;3.95;1.90;;;;;;;;;;10495939;28;20394;-84
2023/08/10 13:34:20;;;;;;;3.15;1.60;;;;;;;;;;10494431;28;20128;-83
2023/08/10 13:39:24;;;;;;;6.20;3.85;;;;;;;;;;10494052;28;20411;-83
2023/08/10 13:44:25;;;;;;;4.75;3.10;;;;;;;;;;10492699;28;20036;-84
2023/08/10 13:49:34;;;;;;;3.70;2.55;;;;;;;;;;10489295;28;20552;-82
2023/08/10 13:54:37;;;;;;;;;;;;;;;;;;10519975;28;20468;-84
2023/08/10 13:59:39;;;;;;;5.00;2.20;;;;;;;;;;10495744;28;19904;-83
2023/08/10 14:04:41;;;;;;;3.53;2.10;;;;;;;;;;10492826;28;20486;-84
2023/08/10 14:09:42;;;;;;;3.35;1.65;;;;;;;;;;10502724;28;20428;-82
2023/08/10 14:14:44;;;;;;;2.95;1.48;;;;;;;;;;10520181;28;20170;-83
2023/08/10 14:19:46;;;;;;;2.97;1.80;;;;;;;;;;10502107;28;20033;-84
2023/08/10 14:24:47;;;;;;;3.67;1.85;;;;;;;;;;10502915;28;20115;-84
2023/08/10 14:29:55;;;;;;;6.75;2.50;;;;;;;;;;10501402;28;20046;-85
2023/08/10 14:34:56;;;;;;;2.67;1.77;;;;;;;;;;10501986;28;20032;-84
2023/08/10 14:40:17;;;;;;;2.70;2.00;;;;;;;;;;10526023;28;20068;-85
2023/08/10 14:45:18;;;;;;;3.05;1.55;;;;;;;;;;10507673;28;20037;-85
2023/08/10 14:50:19;;;;;;;3.85;1.67;;;;;;;;;;10497255;28;20102;-84
2023/08/10 14:55:23;;;;;;;3.33;1.65;;;;;;;;;;10495482;28;20036;-83
2023/08/10 15:00:25;;;;;;;2.58;1.80;;;;;;;;;;10516639;28;20064;-83
2023/08/10 15:05:34;;;;;;;3.40;1.50;;;;;;;;;;10517731;28;20040;-83
2023/08/10 15:10:35;;;;;;;4.03;1.73;;;;;;;;;;10515940;28;20096;-83
2023/08/10 15:15:37;;;;;;;3.00;1.75;;;;;;;;;;10510791;28;20028;-81
2023/08/10 15:20:38;;;;;;;3.17;1.63;;;;;;;;;;10511589;28;20055;-81
2023/08/10 15:25:39;;;;;;;4.55;3.78;;;;;;;;;;10475661;28;20104;-82
2023/08/10 15:30:40;;;;;;;2.80;1.90;;;;;;;;;;10490824;28;20155;-81
2023/08/10 15:35:44;;;;;;;3.85;1.90;;;;;;;;;;10522416;28;20104;-82
2023/08/10 15:40:46;;;;;;;3.58;1.45;;;;;;;;;;10511570;28;20075;-82
2023/08/10 15:45:51;;;;;;;3.83;1.70;;;;;;;;;;10496022;28;20036;-82
2023/08/10 15:50:52;;;;;;;3.08;1.80;;;;;;;;;;10516722;28;20179;-83
2023/08/10 15:55:53;;;;;;;2.67;1.70;;;;;;;;;;10499505;28;20032;-82
2023/08/10 16:00:54;;;;;;;3.78;2.40;;;;;;;;;;10524973;28;20028;-82
2023/08/10 16:05:55;;;;;;;2.30;1.40;;;;;;;;;;10495693;28;20087;-82
2023/08/10 16:11:00;;;;;;;3.17;1.40;;;;;;;;;;10513987;28;20086;-85
2023/08/10 16:16:01;;;;;;;2.60;1.38;;;;;;;;;;10514017;28;20028;-83
2023/08/10 16:21:03;;;;;;;2.70;1.55;;;;;;;;;;10495147;28;20059;-83
2023/08/10 16:26:04;;;;;;;3.25;1.73;;;;;;;;;;10495147;28;20036;-85
2023/08/10 16:31:34;;;;;;;2.13;1.50;;;;;;;;;;10491800;28;20096;-86
2023/08/10 16:48:20;;;;;;;1.73;1.30;;;;;;;;;;10501692;28;20048;-85
2023/08/10 18:01:27;;;;;;;4.13;1.73;;;;;;;;;;10553349;22;20047;-87
2023/08/10 18:07:02;;;;;;;2.42;1.55;;;;;;;;;;10583910;28;20513;-87
2023/08/10 18:18:05;;;;;;;4.25;2.53;;;;;;;;;;10546002;28;20060;-85
2023/08/10 18:24:04;;;;;;;3.67;2.10;;;;;;;;;;10493961;28;20103;-86
2023/08/10 18:35:31;;;;;;;5.65;2.80;;;;;;;;;;10417743;28;20109;-87
2023/08/10 18:41:12;;;;;;;5.80;2.40;;;;;;;;;;10376973;28;20030;-86
2023/08/10 18:52:35;;;;;;;5.45;2.47;;;;;;;;;;10257900;28;20027;-87
